.
WxDataArchive / Data Records for 2012-05-12
2012-05-11 May 2012 2012-05-13

Data Records for Saturday, 12 May 2012

Time	Temp	Chill	HIndex	Humid	Dewpt	 Wind 	HiWind	WindDir	Rain 	Barom 
-----	----	-----	------	-----	-----	------	------	-------	-----	----- 
00:00	54.1	54.1	54.1	56	38.8	0	0	---	0.00	30.145 
00:05	53.9	53.9	53.9	56	38.6	0	0	---	0.00	30.145 
00:10	53.8	53.8	53.8	57	38.9	0	0	---	0.00	30.145 
00:15	53.6	53.6	53.6	58	39.2	0	0	---	0.00	30.145 
00:20	53.5	53.5	53.5	58	39.1	0	0	---	0.00	30.145 
00:25	53.3	53.3	53.3	58	38.9	0	0	---	0.00	30.145 
00:30	53.2	53.2	53.2	59	39.2	0	0	---	0.00	30.148 
00:35	53.1	53.1	53.1	60	39.6	0	0	---	0.00	30.148 
00:40	52.9	52.9	52.9	60	39.4	0	0	---	0.00	30.148 
00:45	52.8	52.8	52.8	61	39.7	0	0	---	0.00	30.153 
00:50	52.8	52.8	52.8	61	39.7	0	0	---	0.00	30.153 
00:55	52.6	52.6	52.6	62	40.0	0	0	---	0.00	30.153 
01:00	52.6	52.6	52.6	62	40.0	0	0	---	0.00	30.158 
01:05	52.5	52.5	52.5	62	39.9	0	0	---	0.00	30.158 
01:10	52.3	52.3	52.3	63	40.1	0	0	---	0.00	30.158 
01:15	52.2	52.2	52.2	64	40.4	0	0	---	0.00	30.156 
01:20	52.2	52.2	52.2	65	40.8	0	0	---	0.00	30.156 
01:25	52.0	52.0	52.0	65	40.6	0	0	---	0.00	30.156 
01:30	51.9	51.9	51.9	65	40.5	0	0	---	0.00	30.156 
01:35	51.9	51.9	51.9	66	40.9	0	0	---	0.00	30.156 
01:40	51.9	51.9	51.9	65	40.5	0	0	---	0.00	30.156 
01:45	51.9	51.9	51.9	66	40.9	0	0	---	0.00	30.159 
01:50	51.7	51.7	51.7	67	41.1	0	0	---	0.00	30.159 
01:55	51.7	51.7	51.7	67	41.1	0	0	---	0.00	30.159 
02:00	51.7	51.7	51.7	67	41.1	0	0	---	0.00	30.159 
02:05	51.6	51.6	51.6	67	41.0	0	0	---	0.00	30.159 
02:10	51.6	51.6	51.6	67	41.0	0	0	---	0.00	30.159 
02:15	51.4	51.4	51.4	67	40.8	0	0	---	0.00	30.159 
02:20	51.4	51.4	51.4	68	41.2	0	0	---	0.00	30.159 
02:25	51.4	51.4	51.4	68	41.2	0	0	---	0.00	30.159 
02:30	51.4	51.4	51.4	68	41.2	0	0	---	0.00	30.159 
02:35	51.3	51.3	51.3	68	41.1	0	0	---	0.00	30.159 
02:40	51.3	51.3	51.3	68	41.1	0	0	---	0.00	30.159 
02:45	51.1	51.1	51.1	68	40.9	0	0	---	0.00	30.159 
02:50	51.1	51.1	51.1	67	40.5	0	0	---	0.00	30.159 
02:55	51.3	51.3	51.3	66	40.3	0	0	---	0.00	30.159 
03:00	51.6	51.6	51.6	66	40.6	0	0	---	0.00	30.160 
03:05	52.0	52.0	52.0	65	40.6	0	0	---	0.00	30.160 
03:10	52.5	52.5	52.5	65	41.1	0	0	---	0.00	30.160 
03:15	52.9	52.9	52.9	64	41.1	0	0	---	0.00	30.155 
03:20	53.3	53.3	53.3	63	41.0	0	0	---	0.00	30.155 
03:25	53.6	53.6	53.6	62	40.9	0	0	---	0.00	30.155 
03:30	54.1	54.1	54.1	62	41.4	0	0	---	0.00	30.156 
03:35	54.4	54.4	54.4	61	41.2	0	0	---	0.00	30.156 
03:40	54.5	54.5	54.5	61	41.3	0	0	---	0.00	30.156 
03:45	54.7	54.7	54.7	60	41.1	0	0	---	0.00	30.154 
03:50	54.7	54.7	54.7	61	41.5	0	0	---	0.00	30.154 
03:55	54.8	54.8	54.8	60	41.2	0	0	---	0.00	30.154 
04:00	54.8	54.8	54.8	60	41.2	0	0	---	0.00	30.155 
04:05	54.7	54.7	54.7	61	41.5	0	0	---	0.00	30.155 
04:10	54.7	54.7	54.7	60	41.1	0	0	---	0.00	30.155 
04:15	54.5	54.5	54.5	60	40.9	0	0	---	0.00	30.156 
04:20	54.4	54.4	54.4	60	40.8	0	0	---	0.00	30.156 
04:25	54.2	54.2	54.2	61	41.0	0	0	---	0.00	30.156 
04:30	54.1	54.1	54.1	61	41.0	0	0	---	0.00	30.159 
04:35	54.1	54.1	54.1	61	41.0	0	0	---	0.00	30.159 
04:40	53.9	53.9	53.9	62	41.2	0	0	---	0.00	30.159 
04:45	53.8	53.8	53.8	62	41.1	0	0	---	0.00	30.158 
04:50	53.6	53.6	53.6	62	40.9	0	0	---	0.00	30.158 
04:55	53.6	53.6	53.6	63	41.3	0	1	248	0.00	30.158 
05:00	53.8	53.8	53.8	63	41.5	0	0	---	0.00	30.156 
05:05	53.8	53.8	53.8	63	41.5	0	0	---	0.00	30.156 
05:10	53.6	53.6	53.6	64	41.7	0	0	---	0.00	30.156 
05:15	53.6	53.6	53.6	64	41.7	0	0	---	0.00	30.161 
05:20	53.6	53.6	53.6	64	41.7	0	0	---	0.00	30.161 
05:25	53.8	53.8	53.8	64	41.9	0	0	---	0.00	30.161 
05:30	53.8	53.8	53.8	65	42.3	0	0	---	0.00	30.168 
05:35	53.6	53.6	53.6	66	42.5	0	0	---	0.00	30.168 
05:40	53.5	53.5	53.5	66	42.4	0	0	---	0.00	30.168 
05:45	53.3	53.3	53.3	66	42.2	0	0	---	0.00	30.171 
05:50	53.3	53.3	53.3	66	42.2	0	0	---	0.00	30.171 
05:55	53.2	53.2	53.2	67	42.5	0	0	---	0.00	30.171 
06:00	53.1	53.1	53.1	68	42.8	0	0	---	0.00	30.170 
06:05	52.8	52.8	52.8	68	42.5	0	0	---	0.00	30.170 
06:10	52.8	52.8	52.8	69	42.9	0	0	---	0.00	30.170 
06:15	52.6	52.6	52.6	68	42.3	0	0	---	0.00	30.174 
06:20	52.6	52.6	52.6	69	42.7	0	0	---	0.00	30.174 
06:25	52.6	52.6	52.6	69	42.7	0	0	---	0.00	30.174 
06:30	52.6	52.6	52.6	69	42.7	0	0	---	0.00	30.180 
06:35	52.8	52.8	52.8	69	42.9	0	0	---	0.00	30.180 
06:40	52.9	52.9	52.9	68	42.6	0	0	---	0.00	30.180 
06:45	53.3	53.3	53.3	67	42.6	0	1	248	0.00	30.184 
06:50	53.6	53.6	53.6	67	42.9	0	0	---	0.00	30.184 
06:55	54.1	54.1	54.1	66	43.0	0	1	248	0.00	30.184 
07:00	54.5	54.5	54.5	64	42.6	0	1	248	0.00	30.191 
07:05	54.8	54.8	54.8	63	42.4	0	1	248	0.00	30.191 
07:10	55.3	55.3	55.3	63	42.9	0	1	248	0.00	30.191 
07:15	55.4	55.4	55.4	62	42.6	0	1	248	0.00	30.197 
07:20	55.7	55.7	55.7	62	42.9	0	1	248	0.00	30.197 
07:25	55.9	55.9	55.9	62	43.1	0	1	248	0.00	30.197 
07:30	56.0	56.0	56.0	62	43.2	0	1	248	0.00	30.202 
07:35	56.3	56.3	56.3	61	43.0	0	1	248	0.00	30.202 
07:40	56.6	56.6	56.6	61	43.3	0	1	248	0.00	30.202 
07:45	56.9	56.9	56.9	61	43.6	0	1	248	0.00	30.203 
07:50	57.0	57.0	57.0	61	43.7	0	1	248	0.00	30.203 
07:55	57.2	57.2	57.2	60	43.4	0	1	248	0.00	30.203 
08:00	57.5	57.5	57.5	60	43.7	0	2	248	0.00	30.204 
08:05	57.6	57.6	57.6	59	43.4	0	1	248	0.00	30.204 
08:10	58.0	58.0	58.0	59	43.8	0	1	248	0.00	30.204 
08:15	58.1	58.1	58.1	59	43.8	0	0	---	0.00	30.207 
08:20	58.3	58.3	58.3	59	44.0	0	0	---	0.00	30.207 
08:25	58.4	58.4	58.4	59	44.1	0	1	248	0.00	30.207 
08:30	58.7	58.7	58.7	58	44.0	0	1	248	0.00	30.208 
08:35	58.9	58.9	58.9	59	44.6	0	1	248	0.00	30.208 
08:40	59.2	59.2	59.2	58	44.4	0	2	248	0.00	30.208 
08:45	59.5	59.5	59.5	58	44.7	0	1	248	0.00	30.210 
08:50	59.9	59.9	59.9	57	44.6	0	1	292	0.00	30.210 
08:55	60.5	60.5	60.5	56	44.7	0	1	292	0.00	30.210 
09:00	61.0	61.0	61.0	56	45.2	0	1	292	0.00	30.216 
09:05	61.5	61.5	61.5	56	45.7	0	1	292	0.00	30.216 
09:10	62.0	62.0	62.0	55	45.6	0	1	292	0.00	30.216 
09:15	62.6	62.6	62.6	53	45.2	1	2	292	0.00	30.220 
09:20	63.4	63.4	63.4	54	46.5	1	3	292	0.00	30.220 
09:25	64.2	64.2	64.2	52	46.2	0	1	292	0.00	30.220 
09:30	65.0	65.0	65.0	51	46.4	0	2	292	0.00	30.220 
09:35	65.6	65.6	65.6	49	45.9	1	3	292	0.00	30.220 
09:40	66.1	66.1	66.1	48	45.8	1	2	292	0.00	30.220 
09:45	66.6	66.6	66.6	49	46.8	1	2	292	0.00	30.219 
09:50	66.9	66.9	66.9	48	46.6	0	1	292	0.00	30.219 
09:55	67.3	67.3	67.3	48	46.9	0	1	292	0.00	30.219 
10:00	67.3	67.3	67.3	49	47.5	0	1	292	0.00	30.217 
10:05	67.3	67.3	67.3	47	46.4	1	4	292	0.00	30.217 
10:10	67.4	67.4	67.4	48	47.0	0	3	292	0.00	30.217 
10:15	67.6	67.6	67.6	46	46.1	1	3	292	0.00	30.220 
10:20	67.8	67.8	67.8	47	46.8	1	3	292	0.00	30.220 
10:25	67.8	67.8	67.8	46	46.3	1	3	292	0.00	30.220 
10:30	67.9	67.9	67.9	46	46.3	0	2	292	0.00	30.221 
10:35	68.1	68.1	68.1	48	47.7	0	1	292	0.00	30.221 
10:40	68.3	68.3	68.3	47	47.3	0	2	292	0.00	30.221 
10:45	68.6	68.6	68.6	47	47.6	0	1	292	0.00	30.220 
10:50	68.9	68.9	68.9	45	46.7	1	3	248	0.00	30.220 
10:55	69.3	69.3	69.3	44	46.4	1	3	248	0.00	30.220 
11:00	69.6	69.6	69.6	43	46.1	0	3	248	0.00	30.217 
11:05	69.9	69.9	69.9	43	46.4	0	2	248	0.00	30.217 
11:10	70.4	70.4	70.4	43	46.8	1	3	248	0.00	30.217 
11:15	70.8	70.8	70.8	42	46.6	0	2	248	0.00	30.219 
11:20	70.9	70.9	70.9	42	46.6	1	3	248	0.00	30.219 
11:25	71.5	71.5	71.5	44	48.4	0	1	248	0.00	30.219 
11:30	72.1	72.1	72.1	43	48.4	0	2	248	0.00	30.215 
11:35	72.3	72.3	72.3	40	46.6	1	2	248	0.00	30.215 
11:40	72.1	72.1	72.1	41	47.1	1	3	248	0.00	30.215 
11:45	72.3	72.3	72.3	42	47.9	1	3	248	0.00	30.216 
11:50	72.3	72.3	72.3	41	47.3	1	4	248	0.00	30.216 
11:55	72.5	72.5	72.5	39	46.1	1	4	315	0.00	30.216 
12:00	72.7	72.7	72.7	41	47.6	1	2	315	0.00	30.217 
12:05	72.8	72.8	72.8	39	46.4	0	2	315	0.00	30.217 
12:10	72.8	72.8	72.8	38	45.7	1	3	315	0.00	30.217 
12:15	73.0	73.0	73.0	39	46.6	1	3	315	0.00	30.212 
12:20	73.0	73.0	73.0	39	46.6	2	4	315	0.00	30.212 
12:25	73.0	73.0	73.0	38	45.9	2	5	315	0.00	30.212 
12:30	73.3	73.3	73.3	38	46.1	1	3	270	0.00	30.212 
12:35	73.2	73.2	73.2	39	46.7	1	3	292	0.00	30.212 
12:40	73.5	73.5	73.5	38	46.3	0	2	292	0.00	30.212 
12:45	73.9	73.9	73.9	39	47.4	1	3	292	0.00	30.206 
12:50	74.4	74.4	74.4	36	45.7	1	3	292	0.00	30.206 
12:55	74.6	74.6	74.6	36	45.9	2	4	225	0.00	30.206 
13:00	74.6	74.6	74.6	35	45.1	2	4	292	0.00	30.203 
13:05	74.7	74.7	74.7	34	44.4	3	4	270	0.00	30.203 
13:10	74.6	74.6	74.6	36	45.9	2	6	270	0.00	30.203 
13:15	74.9	74.9	74.9	34	44.6	0	2	270	0.00	30.203 
13:20	75.1	75.1	77.1	32	43.2	1	5	270	0.00	30.203 
13:25	75.3	75.3	77.4	35	45.7	1	4	292	0.00	30.203 
13:30	75.6	75.6	77.4	35	46.0	1	2	292	0.00	30.198 
13:35	75.8	75.8	77.3	32	43.8	1	4	292	0.00	30.198 
13:40	75.6	75.6	77.4	34	45.2	1	4	270	0.00	30.198 
13:45	75.8	75.8	77.5	35	46.2	0	2	270	0.00	30.191 
13:50	76.1	76.1	77.4	31	43.3	1	4	270	0.00	30.191 
13:55	76.3	76.3	77.5	32	44.3	1	3	270	0.00	30.191 
14:00	76.5	76.5	77.7	33	45.2	1	3	270	0.00	30.188 
14:05	77.0	77.0	77.9	33	45.7	0	2	22	0.00	30.188 
14:10	77.2	77.2	77.9	33	45.8	0	1	225	0.00	30.188 
14:15	77.6	77.6	77.9	30	43.7	1	4	270	0.00	30.183 
14:20	77.4	77.4	77.9	31	44.4	1	3	270	0.00	30.183 
14:25	77.2	77.2	77.9	33	45.8	1	3	292	0.00	30.183 
14:30	77.0	77.0	77.7	31	44.0	2	4	292	0.00	30.181 
14:35	76.7	76.7	77.7	32	44.6	1	3	292	0.00	30.181 
14:40	76.7	76.7	77.8	34	46.2	1	2	315	0.00	30.181 
14:45	76.7	76.7	77.5	30	42.9	1	3	248	0.00	30.180 
14:50	76.5	76.5	77.4	29	41.9	1	3	270	0.00	30.180 
14:55	76.8	76.8	77.7	31	43.9	1	2	270	0.00	30.180 
15:00	77.0	77.0	77.7	30	43.2	1	2	270	0.00	30.176 
15:05	77.2	77.2	77.9	32	45.0	1	5	292	0.00	30.176 
15:10	76.8	76.8	77.7	31	43.9	1	3	248	0.00	30.176 
15:15	76.7	76.7	77.6	31	43.8	0	1	248	0.00	30.173 
15:20	76.7	76.7	77.7	32	44.6	0	3	248	0.00	30.173 
15:25	76.5	76.5	77.6	32	44.4	0	2	248	0.00	30.173 
15:30	76.3	76.3	77.6	33	45.1	1	4	248	0.00	30.169 
15:35	76.0	76.0	77.3	31	43.2	2	5	270	0.00	30.169 
15:40	75.6	75.6	77.3	32	43.6	1	3	270	0.00	30.169 
15:45	75.8	75.8	77.4	33	44.6	0	1	270	0.00	30.167 
15:50	75.6	75.6	77.2	31	42.8	0	2	270	0.00	30.167 
15:55	75.6	75.6	77.4	34	45.2	0	3	0	0.00	30.167 
16:00	75.6	75.6	77.3	33	44.5	0	3	0	0.00	30.161 
16:05	75.8	75.8	77.4	33	44.6	1	4	0	0.00	30.161 
16:10	75.6	75.6	77.2	31	42.8	1	3	270	0.00	30.161 
16:15	75.4	75.4	77.2	32	43.5	1	2	270	0.00	30.160 
16:20	75.4	75.4	77.1	31	42.6	0	2	270	0.00	30.160 
16:25	75.4	75.4	77.2	32	43.5	0	1	270	0.00	30.160 
16:30	75.4	75.4	77.3	34	45.1	0	1	270	0.00	30.159 
16:35	75.4	75.4	77.3	33	44.3	0	1	270	0.00	30.159 
16:40	75.6	75.6	77.4	34	45.2	0	1	270	0.00	30.159 
16:45	75.6	75.6	77.3	32	43.6	0	1	270	0.00	30.156 
16:50	75.6	75.6	77.4	34	45.2	0	1	270	0.00	30.156 
16:55	75.4	75.4	77.3	33	44.3	0	1	270	0.00	30.156 
17:00	75.4	75.4	77.3	34	45.1	0	2	270	0.00	30.158 
17:05	75.3	75.3	77.2	33	44.2	0	1	270	0.00	30.158 
17:10	75.3	75.3	77.2	33	44.2	0	2	270	0.00	30.158 
17:15	75.1	75.1	77.2	33	44.0	1	2	270	0.00	30.157 
17:20	75.1	75.1	77.2	33	44.0	0	1	270	0.00	30.157 
17:25	75.1	75.1	77.1	32	43.2	0	2	270	0.00	30.157 
17:30	74.9	74.9	74.9	32	43.0	0	2	270	0.00	30.157 
17:35	74.7	74.7	74.7	34	44.4	0	1	270	0.00	30.157 
17:40	74.7	74.7	74.7	35	45.2	0	1	270	0.00	30.157 
17:45	74.9	74.9	74.9	33	43.8	0	1	270	0.00	30.156 
17:50	74.9	74.9	74.9	33	43.8	0	2	112	0.00	30.156 
17:55	74.7	74.7	74.7	33	43.7	0	1	112	0.00	30.156 
18:00	74.6	74.6	74.6	34	44.4	0	2	112	0.00	30.155 
18:05	74.6	74.6	74.6	33	43.6	0	2	112	0.00	30.155 
18:10	74.6	74.6	74.6	34	44.4	0	2	112	0.00	30.155 
18:15	74.4	74.4	74.4	34	44.2	0	2	112	0.00	30.154 
18:20	74.4	74.4	74.4	34	44.2	0	1	112	0.00	30.154 
18:25	74.2	74.2	74.2	36	45.5	0	1	112	0.00	30.154 
18:30	74.0	74.0	74.0	37	46.1	0	1	112	0.00	30.151 
18:35	73.7	73.7	73.7	36	45.1	0	1	112	0.00	30.151 
18:40	73.7	73.7	73.7	37	45.8	0	1	112	0.00	30.151 
18:45	73.3	73.3	73.3	37	45.4	0	1	112	0.00	30.146 
18:50	73.3	73.3	73.3	37	45.4	0	1	112	0.00	30.146 
18:55	73.3	73.3	73.3	39	46.8	0	0	---	0.00	30.146 
19:00	73.2	73.2	73.2	37	45.4	0	0	---	0.00	30.144 
19:05	73.0	73.0	73.0	37	45.2	0	0	---	0.00	30.144 
19:10	73.0	73.0	73.0	38	45.9	0	0	---	0.00	30.144 
19:15	72.8	72.8	72.8	43	49.0	0	1	112	0.00	30.143 
19:20	72.5	72.5	72.5	49	52.2	0	1	112	0.00	30.143 
19:25	71.8	71.8	71.8	52	53.2	0	2	112	0.00	30.143 
19:30	71.1	71.1	71.1	54	53.6	0	2	112	0.00	30.150 
19:35	70.6	70.6	70.6	55	53.6	0	1	112	0.00	30.150 
19:40	70.1	70.1	70.1	57	54.1	0	2	112	0.00	30.150 
19:45	69.8	69.8	69.8	58	54.3	0	1	112	0.00	30.152 
19:50	69.4	69.4	69.4	59	54.4	0	1	112	0.00	30.152 
19:55	69.3	69.3	69.3	59	54.3	0	1	112	0.00	30.152 
20:00	69.1	69.1	69.1	60	54.6	0	1	112	0.00	30.155 
20:05	68.9	68.9	68.9	61	54.9	0	1	112	0.00	30.155 
20:10	68.6	68.6	68.6	61	54.6	0	2	112	0.00	30.155 
20:15	68.4	68.4	68.4	62	54.9	0	1	112	0.00	30.155 
20:20	68.3	68.3	68.3	62	54.8	0	1	112	0.00	30.155 
20:25	67.9	67.9	67.9	63	54.8	0	1	112	0.00	30.155 
20:30	67.8	67.8	67.8	63	54.7	0	1	112	0.00	30.157 
20:35	67.4	67.4	67.4	64	54.8	0	1	112	0.00	30.157 
20:40	67.3	67.3	67.3	64	54.7	0	0	---	0.00	30.157 
20:45	67.1	67.1	67.1	65	54.9	0	0	---	0.00	30.158 
20:50	66.8	66.8	66.8	65	54.6	0	0	---	0.00	30.158 
20:55	66.6	66.6	66.6	66	54.9	0	0	---	0.00	30.158 
21:00	66.4	66.4	66.4	66	54.7	0	0	---	0.00	30.165 
21:05	66.3	66.3	66.3	66	54.6	0	0	---	0.00	30.165 
21:10	66.1	66.1	66.1	67	54.8	0	1	112	0.00	30.165 
21:15	66.0	66.0	66.0	67	54.7	0	1	112	0.00	30.164 
21:20	65.8	65.8	65.8	68	54.9	0	0	---	0.00	30.164 
21:25	65.6	65.6	65.6	68	54.7	0	0	---	0.00	30.164 
21:30	65.5	65.5	65.5	69	55.1	0	0	---	0.00	30.163 
21:35	65.3	65.3	65.3	69	54.9	0	0	---	0.00	30.163 
21:40	65.2	65.2	65.2	69	54.8	0	0	---	0.00	30.163 
21:45	65.0	65.0	65.0	70	55.0	0	0	---	0.00	30.166 
21:50	65.0	65.0	65.0	70	55.0	0	0	---	0.00	30.166 
21:55	64.8	64.8	64.8	71	55.2	0	0	---	0.00	30.166 
22:00	64.7	64.7	64.7	71	55.1	0	0	---	0.00	30.167 
22:05	64.5	64.5	64.5	71	54.9	0	0	---	0.00	30.167 
22:10	64.5	64.5	64.5	72	55.3	0	1	112	0.00	30.167 
22:15	64.3	64.3	64.3	72	55.1	0	0	---	0.00	30.166 
22:20	64.3	64.3	64.3	72	55.1	0	0	---	0.00	30.166 
22:25	64.2	64.2	64.2	73	55.4	0	0	---	0.00	30.166 
22:30	64.0	64.0	64.0	73	55.2	0	0	---	0.00	30.175 
22:35	63.9	63.9	63.9	74	55.4	0	1	112	0.00	30.175 
22:40	63.7	63.7	63.7	75	55.6	0	0	---	0.00	30.175 
22:45	63.7	63.7	63.7	75	55.6	0	0	---	0.00	30.180 
22:50	63.5	63.5	63.5	75	55.4	0	0	---	0.00	30.180 
22:55	63.4	63.4	63.4	75	55.3	0	0	---	0.00	30.180 
23:00	63.1	63.1	63.1	76	55.4	0	0	---	0.00	30.182 
23:05	62.9	62.9	62.9	76	55.2	0	0	---	0.00	30.182 
23:10	62.6	62.6	62.6	77	55.3	0	0	---	0.00	30.182 
23:15	62.3	62.3	62.3	77	55.0	0	0	---	0.00	30.180 
23:20	62.1	62.1	62.1	78	55.2	0	0	---	0.00	30.180 
23:25	61.8	61.8	61.8	78	54.9	0	0	---	0.00	30.180 
23:30	61.6	61.6	61.6	79	55.0	0	0	---	0.00	30.179 
23:35	61.5	61.5	61.5	80	55.3	0	0	---	0.00	30.179 
23:40	61.3	61.3	61.3	80	55.1	0	0	---	0.00	30.179 
23:45	61.2	61.2	61.2	81	55.3	0	0	---	0.00	30.168 
23:50	61.0	61.0	61.0	81	55.1	0	0	---	0.00	30.168 
23:55	61.0	61.0	61.0	81	55.1	0	0	---	0.00	30.168 

CoCoRaHS
IN-AL-39
A2 Web Hosting
Creative Commons License
GoDaddy
search engine by freefind advanced

loaded 2018-11-15 13:37:02 • last modified 2010-11-18 10:43:29
Privacy PolicyDisclaimer
• wx.awcolley.com is powered by PmWiki v.2002016 •
• all content (unless otherwise noted) © 2018 A W Colley